Time;durP1;ratioP1;P1;durP2;ratioP2;P2;SDS_P1;SDS_P2;PMS_P1;PMS_P2;Temp;Humidity;BMP_temperature;BMP_pressure;BME280_temperature;BME280_humidity;BME280_pressure;Samples;Min_cycle;Max_cycle;Signal;HPM_P1;HPM_P2
2023/09/15 00:03:53;;;;;;;1999.90;999.90;;;;;;;11.80;100.00;102005.88;10539911;28;20048;-67
2023/09/15 00:08:57;;;;;;;1999.90;999.90;;;;;;;11.72;100.00;102000.97;10539694;28;20055;-67
2023/09/15 00:14:00;;;;;;;1999.90;999.90;;;;;;;11.74;100.00;101998.28;10540121;28;20050;-67
2023/09/15 00:19:03;;;;;;;1999.90;999.90;;;;;;;11.68;100.00;101994.13;10539953;28;20048;-67
2023/09/15 00:24:05;;;;;;;1999.90;999.90;;;;;;;11.62;100.00;101994.41;10540028;28;20075;-67
2023/09/15 00:29:08;;;;;;;1999.90;999.90;;;;;;;11.70;100.00;101985.28;10539329;28;20519;-67
2023/09/15 00:34:14;;;;;;;1999.90;999.90;;;;;;;11.76;100.00;101986.78;10538961;28;20161;-67
2023/09/15 00:39:17;;;;;;;1999.90;999.90;;;;;;;11.67;100.00;101981.94;10510112;23;20081;-67
2023/09/15 00:44:19;;;;;;;1999.90;999.90;;;;;;;11.49;100.00;101980.94;10350352;28;20132;-67
2023/09/15 00:49:22;;;;;;;1999.90;999.90;;;;;;;11.45;100.00;101985.47;10350893;28;20060;-67
2023/09/15 00:54:24;;;;;;;1999.90;999.90;;;;;;;11.36;100.00;101980.59;10368048;28;20053;-66
2023/09/15 00:59:27;;;;;;;1999.90;999.90;;;;;;;11.30;100.00;101978.25;10350627;28;20050;-67
2023/09/15 01:04:31;;;;;;;1999.90;999.90;;;;;;;11.29;100.00;101973.91;10367130;28;20383;-66
2023/09/15 01:09:33;;;;;;;1999.90;999.90;;;;;;;11.19;100.00;101969.97;10350577;28;20103;-66
2023/09/15 01:14:36;;;;;;;1999.90;999.90;;;;;;;11.25;100.00;101959.25;10366960;28;20474;-66
2023/09/15 01:19:54;;;;;;;1999.90;999.90;;;;;;;11.14;100.00;101960.50;10349465;28;20099;-66
2023/09/15 01:25:25;;;;;;;1999.90;999.90;;;;;;;11.27;100.00;101960.88;10367290;28;20056;-66
2023/09/15 01:30:30;;;;;;;1999.90;999.90;;;;;;;11.24;100.00;101960.16;10352115;28;20054;-66
2023/09/15 01:35:32;;;;;;;1999.90;999.90;;;;;;;11.07;100.00;101950.38;10340537;28;20070;-66
2023/09/15 01:40:35;;;;;;;1999.90;999.90;;;;;;;11.03;100.00;101954.88;10373062;28;20455;-67
2023/09/15 01:45:37;;;;;;;1999.90;999.90;;;;;;;11.15;100.00;101949.13;10373591;28;20053;-66
2023/09/15 01:50:40;;;;;;;1999.90;999.90;;;;;;;10.92;100.00;101942.19;10372825;28;20405;-66
2023/09/15 01:55:43;;;;;;;1999.90;999.90;;;;;;;11.00;100.00;101939.28;10372769;28;20498;-66
2023/09/15 02:00:46;;;;;;;1999.90;999.90;;;;;;;10.84;100.00;101944.28;10355847;28;20050;-66
2023/09/15 02:05:48;;;;;;;1999.90;999.90;;;;;;;10.82;100.00;101942.66;10372336;28;20053;-66
2023/09/15 02:10:51;;;;;;;1999.90;999.90;;;;;;;10.82;100.00;101942.66;10372893;28;20056;-66
2023/09/15 02:15:54;;;;;;;1999.90;999.90;;;;;;;10.65;100.00;101933.69;10372185;28;20050;-65
2023/09/15 02:20:57;;;;;;;1999.90;999.90;;;;;;;10.59;100.00;101934.78;10355230;28;20058;-65
2023/09/15 02:26:03;;;;;;;1999.90;999.90;;;;;;;10.58;100.00;101938.31;10371722;28;20479;-65
2023/09/15 02:31:05;;;;;;;1999.90;999.90;;;;;;;10.64;100.00;101933.75;10354285;28;20054;-65
2023/09/15 02:36:08;;;;;;;1999.90;999.90;;;;;;;10.57;100.00;101935.75;10372194;28;20128;-64
2023/09/15 02:41:10;;;;;;;1999.90;999.90;;;;;;;10.55;100.00;101940.19;10354145;28;20145;-65
2023/09/15 02:46:12;;;;;;;1999.90;999.90;;;;;;;10.48;100.00;101936.97;10371145;28;20053;-65
2023/09/15 02:51:15;;;;;;;1999.90;999.90;;;;;;;10.48;100.00;101925.66;10371677;28;20114;-65
2023/09/15 02:56:17;;;;;;;1999.90;999.90;;;;;;;10.38;100.00;101925.16;10371504;28;20069;-65
2023/09/15 03:01:20;;;;;;;1999.90;999.90;;;;;;;10.30;100.00;101922.78;10370715;28;20509;-64
2023/09/15 03:06:23;;;;;;;1999.90;999.90;;;;;;;10.25;100.00;101922.09;10353902;28;20057;-65
2023/09/15 03:11:25;;;;;;;1999.90;999.90;;;;;;;10.30;100.00;101916.69;10371026;28;20054;-64
2023/09/15 03:16:29;;;;;;;1999.90;999.90;;;;;;;10.29;100.00;101926.31;10370793;28;20046;-65
2023/09/15 03:21:33;;;;;;;1999.90;999.90;;;;;;;10.26;100.00;101923.81;10370664;28;20084;-65
2023/09/15 03:26:36;;;;;;;1999.90;999.90;;;;;;;10.20;100.00;101919.69;10369852;28;20054;-65
2023/09/15 03:31:38;;;;;;;1999.90;999.90;;;;;;;10.10;100.00;101915.69;10370411;28;20054;-65
2023/09/15 03:36:41;;;;;;;1999.90;999.90;;;;;;;10.10;100.00;101909.59;10370189;28;20050;-65
2023/09/15 03:41:43;;;;;;;1999.90;999.90;;;;;;;10.06;100.00;101905.41;10369334;28;20494;-65
2023/09/15 03:46:45;;;;;;;1999.90;999.90;;;;;;;10.04;100.00;101902.84;10369214;28;20072;-65
2023/09/15 03:51:48;;;;;;;1999.90;999.90;;;;;;;9.99;100.00;101897.78;10369361;28;20057;-65
2023/09/15 03:56:50;;;;;;;1999.90;999.90;;;;;;;10.09;100.00;101906.16;10369560;28;20042;-65
2023/09/15 04:01:53;;;;;;;1999.90;999.90;;;;;;;9.97;100.00;101898.72;10352203;28;20058;-65
2023/09/15 04:06:55;;;;;;;1999.90;999.90;;;;;;;9.86;100.00;101888.69;10368592;28;20053;-65
2023/09/15 04:11:58;;;;;;;1999.90;999.90;;;;;;;9.86;100.00;101896.53;10368543;28;20076;-65
2023/09/15 04:17:03;;;;;;;1999.90;999.90;;;;;;;9.94;100.00;101889.25;10335539;28;20069;-65
2023/09/15 04:22:06;;;;;;;1999.90;999.90;;;;;;;9.95;100.00;101890.09;10368915;28;20064;-65
2023/09/15 04:27:09;;;;;;;1999.90;999.90;;;;;;;9.97;100.00;101890.88;10368737;28;20074;-65
2023/09/15 04:32:12;;;;;;;1999.90;999.90;;;;;;;9.88;100.00;101879.00;10367991;28;20387;-66
2023/09/15 04:37:14;;;;;;;1999.90;999.90;;;;;;;9.74;100.00;101892.59;10368511;28;20046;-66
2023/09/15 04:42:17;;;;;;;1999.90;999.90;;;;;;;9.80;100.00;101892.38;10367680;28;20058;-66
2023/09/15 04:47:36;;;;;;;1999.90;999.90;;;;;;;9.81;100.00;101894.06;10368197;28;20077;-66
2023/09/15 04:52:38;;;;;;;1999.90;999.90;;;;;;;9.64;100.00;101899.91;10368155;28;20084;-66
2023/09/15 04:57:41;;;;;;;1999.90;999.90;;;;;;;9.75;100.00;101894.31;10350671;28;20050;-66
2023/09/15 05:02:45;;;;;;;1999.90;999.90;;;;;;;9.76;100.00;101898.63;10367243;28;20483;-66
2023/09/15 05:07:48;;;;;;;1999.90;999.90;;;;;;;9.78;100.00;101896.78;10373290;28;20045;-66
2023/09/15 05:12:50;;;;;;;1999.90;999.90;;;;;;;9.67;100.00;101905.03;10374753;28;20050;-66
2023/09/15 05:17:53;;;;;;;1999.90;999.90;;;;;;;9.87;100.00;101903.47;10373985;28;20118;-65
2023/09/15 05:22:55;;;;;;;1999.90;999.90;;;;;;;9.86;100.00;101904.38;10374452;28;20057;-64
2023/09/15 05:27:58;;;;;;;1999.90;999.90;;;;;;;9.72;100.00;101897.03;10373537;28;20053;-64
2023/09/15 05:33:00;;;;;;;1999.90;999.90;;;;;;;9.80;100.00;101907.19;10374083;28;20095;-64
2023/09/15 05:38:03;;;;;;;1999.90;999.90;;;;;;;9.93;100.00;101911.06;10373296;28;20112;-65
2023/09/15 05:43:05;;;;;;;1999.90;999.90;;;;;;;10.01;100.00;101910.81;10329250;28;20076;-65
2023/09/15 05:48:12;;;;;;;1999.90;999.90;;;;;;;10.03;100.00;101915.06;10332446;28;20449;-65
2023/09/15 05:53:14;;;;;;;1999.90;999.90;;;;;;;10.17;100.00;101924.16;10333019;28;20047;-65
2023/09/15 05:58:17;;;;;;;1999.90;999.90;;;;;;;10.14;100.00;101914.69;10332882;28;20073;-65
2023/09/15 06:03:19;;;;;;;1999.90;999.90;;;;;;;10.31;100.00;101921.03;10332706;28;20047;-63
2023/09/15 06:08:21;;;;;;;1999.90;999.90;;;;;;;10.33;100.00;101924.47;10331783;28;20072;-64
2023/09/15 06:13:24;;;;;;;1999.90;999.90;;;;;;;10.46;100.00;101915.25;10331236;28;20054;-64
2023/09/15 06:18:26;;;;;;;1999.90;999.90;;;;;;;10.58;100.00;101919.97;10331950;28;20073;-67
2023/09/15 06:23:30;;;;;;;1999.90;999.90;;;;;;;10.60;100.00;101931.25;10330961;28;20134;-67
2023/09/15 06:28:32;;;;;;;1999.90;999.90;;;;;;;10.84;100.00;101928.56;10331184;28;20039;-67
2023/09/15 06:33:35;;;;;;;1999.90;999.90;;;;;;;11.07;100.00;101916.28;10331286;28;20490;-67
2023/09/15 06:38:37;;;;;;;1999.90;999.90;;;;;;;11.15;100.00;101920.28;10331279;28;20133;-66
2023/09/15 06:43:39;;;;;;;1999.90;999.90;;;;;;;11.33;100.00;101923.91;10353939;28;20061;-67
2023/09/15 06:48:42;;;;;;;1999.90;999.90;;;;;;;11.61;100.00;101914.00;10354412;28;20056;-67
2023/09/15 06:53:45;;;;;;;1999.90;999.90;;;;;;;11.93;100.00;101891.59;10371609;28;20056;-67
2023/09/15 06:58:47;;;;;;;1999.90;999.90;;;;;;;12.12;100.00;101888.13;10370807;28;20469;-68
2023/09/15 07:03:50;;;;;;;1999.90;999.90;;;;;;;12.21;100.00;101882.44;10371288;28;20137;-67
2023/09/15 07:08:53;;;;;;;1999.90;999.90;;;;;;;12.28;100.00;101875.97;10353121;28;20077;-68
2023/09/15 07:13:55;;;;;;;1999.90;999.90;;;;;;;12.36;100.00;101876.47;10353013;28;20406;-69
2023/09/15 07:18:58;;;;;;;1999.90;999.90;;;;;;;12.83;100.00;101889.06;10370764;28;20046;-69
2023/09/15 07:24:01;;;;;;;1999.90;999.90;;;;;;;13.04;100.00;101886.28;10352649;28;20525;-67
2023/09/15 07:29:03;;;;;;;1999.90;999.90;;;;;;;13.29;100.00;101875.38;10369617;28;20052;-67
2023/09/15 07:34:06;;;;;;;1999.90;999.90;;;;;;;13.84;100.00;101868.16;10352986;28;20050;-67
2023/09/15 07:39:08;;;;;;;1999.90;999.90;;;;;;;14.55;100.00;101848.44;10369197;28;20107;-67
2023/09/15 07:44:11;;;;;;;1999.90;999.90;;;;;;;14.73;100.00;101842.13;10369954;28;20137;-67
2023/09/15 07:49:14;;;;;;;1999.90;999.90;;;;;;;15.78;100.00;101833.19;10351941;28;20453;-67
2023/09/15 07:54:16;;;;;;;1999.90;999.90;;;;;;;16.16;100.00;101832.53;10369525;28;20053;-67
2023/09/15 07:59:19;;;;;;;1999.90;999.90;;;;;;;16.07;97.59;101828.72;10369489;28;20053;-67
2023/09/15 08:04:21;;;;;;;1999.90;999.90;;;;;;;15.96;100.00;101824.09;10369256;28;20046;-66
2023/09/15 08:09:23;;;;;;;1999.90;999.90;;;;;;;15.49;100.00;101830.53;10351951;28;20132;-66
2023/09/15 08:14:29;;;;;;;1999.90;999.90;;;;;;;16.09;100.00;101832.09;10368508;28;20410;-66
2023/09/15 08:19:31;;;;;;;1999.90;999.90;;;;;;;16.78;98.34;101829.34;10368338;28;20063;-66
2023/09/15 08:24:34;;;;;;;1999.90;999.90;;;;;;;16.60;95.85;101820.00;10350609;28;20482;-66
2023/09/15 08:29:36;;;;;;;1999.90;999.90;;;;;;;16.47;96.58;101825.25;10367989;28;20058;-66
2023/09/15 08:34:39;;;;;;;1999.90;999.90;;;;;;;17.34;91.65;101820.31;10368494;28;20045;-66
2023/09/15 08:39:41;;;;;;;1999.90;999.90;;;;;;;18.07;92.69;101821.31;10353650;28;20085;-66
2023/09/15 08:44:44;;;;;;;1999.90;999.90;;;;;;;17.93;94.61;101812.56;10375792;28;20073;-66
2023/09/15 08:49:47;;;;;;;1999.90;999.90;;;;;;;17.88;88.39;101816.53;10358103;28;20049;-66
2023/09/15 08:54:51;;;;;;;1999.90;999.90;;;;;;;18.10;88.73;101811.34;10357402;28;20383;-66
2023/09/15 08:59:54;;;;;;;1999.90;999.90;;;;;;;17.95;88.24;101805.34;10357107;28;20482;-66
2023/09/15 09:04:56;;;;;;;1999.90;999.90;;;;;;;18.56;82.98;101799.16;10374923;28;20064;-66
2023/09/15 09:09:58;;;;;;;1999.90;999.90;;;;;;;21.01;78.20;101782.16;10374849;28;20115;-66
2023/09/15 09:15:01;;;;;;;1999.90;999.90;;;;;;;20.83;78.95;101794.38;10357334;28;20049;-65
2023/09/15 09:20:05;;;;;;;1999.90;999.90;;;;;;;21.96;74.82;101782.78;10374569;28;20129;-66
2023/09/15 09:25:07;;;;;;;1999.90;999.90;;;;;;;20.91;72.71;101797.22;10373624;28;20445;-65
2023/09/15 09:30:10;;;;;;;1999.90;999.90;;;;;;;20.56;74.18;101777.94;10374185;28;20074;-65
2023/09/15 09:35:13;;;;;;;1999.90;999.90;;;;;;;21.85;72.92;101773.88;10374028;28;20050;-66
2023/09/15 09:40:17;;;;;;;1999.90;999.90;;;;;;;21.80;70.59;101772.63;10372364;28;20057;-65
2023/09/15 09:45:27;;;;;;;1999.90;999.90;;;;;;;22.20;69.17;101766.34;10370246;28;20056;-66
2023/09/15 09:50:31;;;;;;;1999.90;999.90;;;;;;;23.67;67.22;101756.94;10355474;28;20107;-66
2023/09/15 09:55:33;;;;;;;1999.90;999.90;;;;;;;24.49;63.76;101751.47;10355952;28;20046;-66
2023/09/15 10:00:36;;;;;;;1999.90;999.90;;;;;;;24.36;62.67;101756.38;10355279;28;20514;-66
2023/09/15 10:05:39;;;;;;;1999.90;999.90;;;;;;;22.63;63.49;101755.22;10338205;28;20054;-66
2023/09/15 10:10:44;;;;;;;1999.90;999.90;;;;;;;24.73;62.94;101750.84;10347086;28;20054;-65
2023/09/15 10:15:47;;;;;;;1999.90;999.90;;;;;;;24.66;55.89;101739.06;10372646;28;20054;-66
2023/09/15 10:20:52;;;;;;;1999.90;999.90;;;;;;;25.84;58.36;101728.47;10354803;28;20476;-66
2023/09/15 10:25:55;;;;;;;1999.90;999.90;;;;;;;25.87;55.61;101732.66;10355001;28;20141;-66
2023/09/15 10:30:58;;;;;;;1999.90;999.90;;;;;;;25.28;55.10;101719.31;10371681;28;20068;-66
2023/09/15 10:36:05;;;;;;;1999.90;999.90;;;;;;;24.76;56.59;101718.38;10371543;28;20550;-66
2023/09/15 10:41:09;;;;;;;1999.90;999.90;;;;;;;24.86;57.08;101718.25;10354506;28;20103;-65
2023/09/15 10:46:12;;;;;;;1999.90;999.90;;;;;;;25.13;55.61;101700.28;10371749;28;20042;-65
2023/09/15 10:51:17;;;;;;;1999.90;999.90;;;;;;;24.55;56.29;101709.91;10371065;28;20137;-65
2023/09/15 10:56:20;;;;;;;1999.90;999.90;;;;;;;25.20;55.77;101698.63;10354522;28;20057;-66
2023/09/15 11:01:22;;;;;;;1999.90;999.90;;;;;;;26.08;55.32;101686.59;10370791;28;20088;-65
2023/09/15 11:06:28;;;;;;;1999.90;999.90;;;;;;;26.66;51.86;101673.91;10369938;28;20049;-66
2023/09/15 11:11:31;;;;;;;1999.90;999.90;;;;;;;24.69;51.39;101684.38;10354156;28;20049;-65
2023/09/15 11:16:35;;;;;;;1999.90;999.90;;;;;;;25.69;53.56;101674.66;10370184;28;20463;-66
2023/09/15 11:21:38;;;;;;;1999.90;999.90;;;;;;;24.97;53.48;101660.91;10353384;28;20054;-66
2023/09/15 11:26:48;;;;;;;1999.90;999.90;;;;;;;27.65;52.08;101662.66;10352428;28;20448;-66
2023/09/15 11:31:52;;;;;;;1999.90;999.90;;;;;;;26.36;50.28;101660.22;10352830;28;20495;-66
2023/09/15 11:36:59;;;;;;;1999.90;999.90;;;;;;;27.48;50.21;101651.19;10352795;28;20128;-66
2023/09/15 11:42:10;;;;;;;1999.90;999.90;;;;;;;27.12;51.50;101649.88;10352214;28;20064;-66
2023/09/15 11:47:13;;;;;;;1999.90;999.90;;;;;;;26.43;52.00;101646.94;10351869;28;20441;-66
2023/09/15 11:52:15;;;;;;;1999.90;999.90;;;;;;;25.01;53.36;101638.97;10352507;28;20129;-65
2023/09/15 11:57:20;;;;;;;1999.90;999.90;;;;;;;27.10;51.12;101635.78;10368920;28;20129;-66
2023/09/15 12:02:22;;;;;;;1999.90;999.90;;;;;;;27.23;50.23;101635.16;10368855;28;20452;-66
2023/09/15 12:07:25;;;;;;;1999.90;999.90;;;;;;;26.31;51.84;101625.81;10351458;28;20133;-66
2023/09/15 12:12:28;;;;;;;1999.90;999.90;;;;;;;25.96;51.24;101629.75;10351823;28;20050;-66
2023/09/15 12:17:34;;;;;;;1999.90;999.90;;;;;;;25.89;50.45;101629.56;10367959;28;20501;-66
2023/09/15 12:22:41;;;;;;;1999.90;999.90;;;;;;;25.28;52.20;101612.09;10368940;28;20086;-66
2023/09/15 12:27:44;;;;;;;1999.90;999.90;;;;;;;25.05;53.23;101610.03;10368771;28;20129;-66
2023/09/15 12:32:47;;;;;;;1999.90;999.90;;;;;;;26.75;50.69;101600.34;10368463;28;20064;-66
2023/09/15 12:37:53;;;;;;;1999.90;999.90;;;;;;;25.87;52.10;101603.91;10352041;28;20046;-66
2023/09/15 12:42:55;;;;;;;1999.90;999.90;;;;;;;24.63;55.00;101605.53;10350354;28;20115;-66
2023/09/15 12:47:58;;;;;;;1999.90;999.90;;;;;;;25.84;49.60;101596.19;10368375;28;20050;-66
2023/09/15 12:53:00;;;;;;;1999.90;999.90;;;;;;;26.58;48.27;101598.72;10350902;28;20054;-66
2023/09/15 12:58:03;;;;;;;1999.90;999.90;;;;;;;26.17;49.58;101602.38;10318844;23;20058;-68
2023/09/15 13:03:05;;;;;;;1999.90;999.90;;;;;;;27.74;46.45;101588.91;10309721;28;20137;-67
2023/09/15 13:08:08;;;;;;;1999.90;999.90;;;;;;;26.86;49.51;101583.00;10327301;28;20057;-67
2023/09/15 13:13:10;;;;;;;1999.90;999.90;;;;;;;25.18;49.65;101577.38;10326679;28;20415;-67
2023/09/15 13:18:13;;;;;;;1999.90;999.90;;;;;;;27.01;52.82;101562.41;10326552;28;20053;-67
2023/09/15 13:23:15;;;;;;;1999.90;999.90;;;;;;;25.96;50.38;101568.06;10327059;28;20047;-67
2023/09/15 13:28:18;;;;;;;1999.90;999.90;;;;;;;26.48;50.76;101550.59;10331059;28;20054;-67
2023/09/15 13:33:20;;;;;;;1999.90;999.90;;;;;;;27.25;49.23;101547.97;10333083;28;20384;-67
2023/09/15 13:38:23;;;;;;;1999.90;999.90;;;;;;;26.04;51.44;101538.53;10333659;28;20046;-67
2023/09/15 13:43:25;;;;;;;1999.90;999.90;;;;;;;26.65;48.71;101529.91;10300259;28;20078;-67
2023/09/15 13:48:27;;;;;;;1999.90;999.90;;;;;;;26.61;50.64;101523.16;10332580;28;20512;-67
2023/09/15 13:53:35;;;;;;;1999.90;999.90;;;;;;;26.85;49.60;101535.66;10315880;28;20103;-67
2023/09/15 13:58:39;;;;;;;1999.90;999.90;;;;;;;28.40;48.37;101519.09;10333210;28;20107;-67
2023/09/15 14:03:44;;;;;;;1999.90;999.90;;;;;;;25.86;48.99;101527.97;10332866;28;20582;-67
2023/09/15 14:08:46;;;;;;;1999.90;999.90;;;;;;;27.05;48.53;101518.06;10333239;28;20050;-67
2023/09/15 14:13:49;;;;;;;1999.90;999.90;;;;;;;27.76;46.96;101517.78;10332567;28;20054;-67
2023/09/15 14:18:52;;;;;;;1999.90;999.90;;;;;;;24.82;53.11;101511.53;10331704;28;20047;-67
2023/09/15 14:23:54;;;;;;;1999.90;999.90;;;;;;;25.77;51.25;101512.88;10314998;28;20050;-67
2023/09/15 14:28:56;;;;;;;1999.90;999.90;;;;;;;25.75;53.97;101506.88;10331921;28;20125;-66
2023/09/15 14:33:59;;;;;;;1999.90;999.90;;;;;;;27.70;48.28;101505.06;10331891;28;20050;-67
2023/09/15 14:39:08;;;;;;;1999.90;999.90;;;;;;;25.17;51.40;101508.75;10331531;28;20062;-67
2023/09/15 14:44:18;;;;;;;1999.90;999.90;;;;;;;23.89;55.17;101514.16;10331567;28;20129;-67
2023/09/15 14:49:24;;;;;;;1999.90;999.90;;;;;;;22.11;66.43;101508.50;10331451;28;20043;-66
2023/09/15 14:54:26;;;;;;;1999.90;999.90;;;;;;;22.40;66.04;101508.44;10331113;28;20061;-66
2023/09/15 14:59:29;;;;;;;1999.90;999.90;;;;;;;21.79;71.76;101507.94;10331092;28;20054;-67
2023/09/15 15:04:31;;;;;;;1999.90;999.90;;;;;;;21.84;72.36;101503.00;10330970;28;20064;-67
2023/09/15 15:09:35;;;;;;;1999.90;999.90;;;;;;;21.96;73.89;101493.00;10330054;28;20513;-67
2023/09/15 15:14:37;;;;;;;1999.90;999.90;;;;;;;21.73;74.63;101495.19;10330763;28;20057;-66
2023/09/15 15:19:40;;;;;;;1999.90;999.90;;;;;;;22.15;80.54;101481.41;10330499;28;20053;-66
2023/09/15 15:24:43;;;;;;;1999.90;999.90;;;;;;;21.29;82.53;101487.66;10330316;28;20050;-66
2023/09/15 15:29:47;;;;;;;1999.90;999.90;;;;;;;21.07;83.88;101485.28;10313066;28;20054;-66
2023/09/15 15:34:50;;;;;;;1999.90;999.90;;;;;;;22.31;78.71;101471.97;10330045;28;20058;-67
2023/09/15 15:39:53;;;;;;;1999.90;999.90;;;;;;;21.79;81.93;101464.47;10312797;28;20125;-67
2023/09/15 15:44:58;;;;;;;1999.90;999.90;;;;;;;21.49;82.25;101461.84;10329724;28;20128;-68
2023/09/15 15:50:00;;;;;;;1999.90;999.90;;;;;;;21.25;82.63;101454.31;10328853;28;20078;-68
2023/09/15 15:55:03;;;;;;;1999.90;999.90;;;;;;;21.18;82.07;101457.66;10328499;28;20514;-67
2023/09/15 16:00:07;;;;;;;1999.90;999.90;;;;;;;21.25;83.82;101458.78;10329203;28;20057;-67
2023/09/15 16:05:09;;;;;;;1999.90;999.90;;;;;;;21.20;85.40;101455.69;10328939;28;20054;-67
2023/09/15 16:10:12;;;;;;;1999.90;999.90;;;;;;;21.07;86.23;101461.31;10328916;28;20047;-67
2023/09/15 16:15:14;;;;;;;1999.90;999.90;;;;;;;21.08;89.01;101465.66;10311617;28;20047;-67
2023/09/15 16:20:17;;;;;;;1999.90;999.90;;;;;;;21.44;85.14;101456.09;10328774;28;20089;-67
2023/09/15 16:25:19;;;;;;;1999.90;999.90;;;;;;;20.55;93.00;101456.22;10327831;28;20489;-67
2023/09/15 16:30:21;;;;;;;1999.90;999.90;;;;;;;19.75;99.38;101460.53;10328385;28;20054;-67
2023/09/15 16:35:24;;;;;;;1999.90;999.90;;;;;;;19.49;100.00;101453.78;10327613;28;20384;-67
2023/09/15 16:40:26;;;;;;;1999.90;999.90;;;;;;;19.03;100.00;101462.97;10328366;28;20050;-67
2023/09/15 16:45:32;;;;;;;1999.90;999.90;;;;;;;19.06;100.00;101461.84;10310288;28;20530;-67
2023/09/15 16:50:34;;;;;;;1999.90;999.90;;;;;;;18.67;100.00;101464.13;10328027;28;20082;-67
2023/09/15 16:55:37;;;;;;;1999.90;999.90;;;;;;;18.71;100.00;101462.91;10309764;28;20054;-67
2023/09/15 17:00:40;;;;;;;1999.90;999.90;;;;;;;18.59;100.00;101458.59;10330316;28;20050;-67
2023/09/15 17:05:43;;;;;;;1999.90;999.90;;;;;;;18.41;100.00;101467.09;10317177;28;20437;-67
2023/09/15 17:10:45;;;;;;;1999.90;999.90;;;;;;;18.30;100.00;101465.28;10334115;28;20462;-70
2023/09/15 17:15:48;;;;;;;1999.90;999.90;;;;;;;17.99;100.00;101465.06;10317150;28;20085;-69
2023/09/15 17:20:51;;;;;;;1999.90;999.90;;;;;;;17.91;100.00;101462.16;10333550;28;20058;-69
2023/09/15 17:25:53;;;;;;;1999.90;999.90;;;;;;;17.59;100.00;101462.81;10333361;28;20471;-69
2023/09/15 17:30:58;;;;;;;1999.90;999.90;;;;;;;17.43;100.00;101465.81;10316959;28;20046;-69
2023/09/15 17:36:01;;;;;;;1999.90;999.90;;;;;;;17.27;100.00;101465.25;10333699;28;20085;-69
2023/09/15 17:41:06;;;;;;;1999.90;999.90;;;;;;;17.18;100.00;101469.44;10316327;28;20057;-69
2023/09/15 17:46:09;;;;;;;1999.90;999.90;;;;;;;17.08;100.00;101476.38;10332671;28;20054;-69
2023/09/15 17:51:11;;;;;;;1999.90;999.90;;;;;;;16.84;100.00;101473.69;10333211;28;20130;-69
2023/09/15 17:56:14;;;;;;;1999.90;999.90;;;;;;;16.58;100.00;101473.78;10332594;28;20081;-69
2023/09/15 18:01:16;;;;;;;1999.90;999.90;;;;;;;16.58;100.00;101487.00;10332927;28;20205;-69
2023/09/15 18:06:20;;;;;;;1999.90;999.90;;;;;;;16.32;100.00;101475.66;10315606;28;20042;-69
2023/09/15 18:11:22;;;;;;;1999.90;999.90;;;;;;;16.30;100.00;101481.03;10332085;28;20537;-69
2023/09/15 18:16:24;;;;;;;1999.90;999.90;;;;;;;16.12;100.00;101487.63;10332310;28;20074;-69
2023/09/15 18:21:27;;;;;;;1999.90;999.90;;;;;;;16.04;100.00;101487.31;10331619;28;20525;-69
2023/09/15 18:26:29;;;;;;;1999.90;999.90;;;;;;;15.88;100.00;101493.66;10332115;28;20050;-69
2023/09/15 18:31:32;;;;;;;1999.90;999.90;;;;;;;15.70;100.00;101487.81;10314855;28;20047;-70
2023/09/15 18:36:34;;;;;;;1999.90;999.90;;;;;;;15.68;100.00;101486.22;10331875;28;20081;-70
2023/09/15 18:41:36;;;;;;;1999.90;999.90;;;;;;;15.63;100.00;101488.34;10331056;28;20456;-69
2023/09/15 18:46:39;;;;;;;1999.90;999.90;;;;;;;15.47;100.00;101489.38;10331461;28;20046;-70
2023/09/15 18:51:41;;;;;;;1999.90;999.90;;;;;;;15.49;100.00;101489.28;10331400;28;20061;-69
2023/09/15 18:56:47;;;;;;;1999.90;999.90;;;;;;;15.33;100.00;101485.03;10313461;28;20089;-70
2023/09/15 19:01:49;;;;;;;1999.90;999.90;;;;;;;15.23;100.00;101489.19;10330473;28;20051;-70
2023/09/15 19:06:52;;;;;;;1999.90;999.90;;;;;;;15.24;100.00;101497.00;10330164;28;20552;-71
2023/09/15 19:11:55;;;;;;;1999.90;999.90;;;;;;;15.13;100.00;101491.63;10330750;28;20057;-69
2023/09/15 19:16:57;;;;;;;1999.90;999.90;;;;;;;15.19;100.00;101491.19;10330595;28;20104;-71
2023/09/15 19:22:00;;;;;;;1999.90;999.90;;;;;;;15.10;100.00;101490.97;10330412;28;20055;-69
2023/09/15 19:27:02;;;;;;;1999.90;999.90;;;;;;;14.94;100.00;101491.13;10329207;28;20130;-70
2023/09/15 19:32:05;;;;;;;1999.90;999.90;;;;;;;14.97;100.00;101498.81;10329452;28;20145;-69
2023/09/15 19:37:07;;;;;;;1999.90;999.90;;;;;;;14.88;100.00;101502.91;10329940;28;20183;-69
2023/09/15 19:42:10;;;;;;;1999.90;999.90;;;;;;;14.85;100.00;101498.66;10329788;28;20132;-69
2023/09/15 19:47:12;;;;;;;1999.90;999.90;;;;;;;14.87;100.00;101498.56;10312250;28;20046;-69
2023/09/15 19:52:15;;;;;;;1999.90;999.90;;;;;;;14.75;100.00;101499.38;10329437;28;20099;-69
2023/09/15 19:57:17;;;;;;;1999.90;999.90;;;;;;;14.70;100.00;101499.66;10328525;28;20054;-69
2023/09/15 20:02:20;;;;;;;1999.90;999.90;;;;;;;14.63;100.00;101496.56;10328576;28;20410;-70
2023/09/15 20:07:22;;;;;;;1999.90;999.90;;;;;;;14.73;100.00;101498.63;10328333;28;20046;-71
2023/09/15 20:12:24;;;;;;;1999.90;999.90;;;;;;;14.65;100.00;101486.75;10328227;28;20057;-71
2023/09/15 20:17:28;;;;;;;1999.90;999.90;;;;;;;14.67;100.00;101484.88;10328787;28;20047;-71
2023/09/15 20:22:30;;;;;;;1999.90;999.90;;;;;;;14.47;100.00;101491.41;10328630;28;20099;-71
2023/09/15 20:27:34;;;;;;;1999.90;999.90;;;;;;;14.56;100.00;101478.56;10328418;28;20046;-70
2023/09/15 20:32:36;;;;;;;1999.90;999.90;;;;;;;14.40;100.00;101479.53;10327790;28;20457;-70
2023/09/15 20:37:39;;;;;;;1999.90;999.90;;;;;;;14.48;100.00;101481.69;10327278;28;20068;-70
2023/09/15 20:42:41;;;;;;;1999.90;999.90;;;;;;;14.43;100.00;101476.69;10328115;28;20046;-70
2023/09/15 20:47:44;;;;;;;1999.90;999.90;;;;;;;14.33;100.00;101488.75;10327933;28;20058;-70
2023/09/15 20:52:52;;;;;;;1999.90;999.90;;;;;;;14.35;100.00;101489.50;10327267;28;20054;-70
2023/09/15 20:57:55;;;;;;;1999.90;999.90;;;;;;;14.41;100.00;101483.03;10326944;28;20125;-70
2023/09/15 21:02:57;;;;;;;1999.90;999.90;;;;;;;14.26;100.00;101487.47;10327085;28;20054;-70
2023/09/15 21:08:00;;;;;;;1999.90;999.90;;;;;;;14.24;100.00;101487.56;10327421;28;20072;-70
2023/09/15 21:13:02;;;;;;;1999.90;999.90;;;;;;;14.16;100.00;101487.19;10327322;28;20129;-70
2023/09/15 21:18:05;;;;;;;1999.90;999.90;;;;;;;14.12;100.00;101485.66;10327233;28;20074;-70
2023/09/15 21:23:08;;;;;;;1999.90;999.90;;;;;;;14.05;100.00;101492.25;10326465;28;20500;-70
2023/09/15 21:28:10;;;;;;;1999.90;999.90;;;;;;;14.13;100.00;101490.81;10326398;28;20047;-70
2023/09/15 21:33:16;;;;;;;1999.90;999.90;;;;;;;14.06;100.00;101488.69;10326238;28;20065;-70
2023/09/15 21:38:18;;;;;;;1999.90;999.90;;;;;;;14.07;100.00;101487.72;10309941;28;20054;-70
2023/09/15 21:43:22;;;;;;;1999.90;999.90;;;;;;;14.17;100.00;101490.66;10326930;28;20057;-70
2023/09/15 21:48:25;;;;;;;1999.90;999.90;;;;;;;14.15;100.00;101498.63;10329891;28;20082;-71